Time;durP1;ratioP1;P1;durP2;ratioP2;P2;SDS_P1;SDS_P2;PMS_P1;PMS_P2;Temp;Humidity;BMP_temperature;BMP_pressure;BME280_temperature;BME280_humidity;BME280_pressure;Samples;Min_cycle;Max_cycle;Signal;HPM_P1;HPM_P2
2022/01/27 00:02:08;;;;;;;7.50;6.15;;;16.80;38.60;;;;;;5072134;28;20471;-37
2022/01/27 00:04:39;;;;;;;;;;;16.80;39.20;;;;;;5072373;28;20078;-37
2022/01/27 00:07:05;;;;;;;8.27;6.15;;;16.80;38.70;;;;;;5071740;28;19908;-38
2022/01/27 00:10:04;;;;;;;8.45;6.20;;;16.80;38.70;;;;;;5071316;28;20029;-40
2022/01/27 00:12:30;;;;;;;8.07;6.63;;;16.80;38.70;;;;;;5071284;28;20103;-40
2022/01/27 00:15:08;;;;;;;7.85;6.00;;;16.80;38.70;;;;;;5071301;28;20083;-39
2022/01/27 00:17:39;;;;;;;7.57;6.13;;;16.70;38.70;;;;;;5071137;28;20063;-40
2022/01/27 00:20:07;;;;;;;7.28;5.82;;;16.70;38.80;;;;;;5091689;28;20097;-40
2022/01/27 00:22:33;;;;;;;8.23;6.05;;;16.70;38.80;;;;;;5093540;28;20039;-40
2022/01/27 00:24:58;;;;;;;9.07;6.60;;;16.70;38.80;;;;;;5095218;28;20454;-40
2022/01/27 00:27:24;;;;;;;8.25;6.07;;;16.70;38.80;;;;;;5092806;28;20475;-40
2022/01/27 00:29:50;;;;;;;7.72;6.03;;;16.70;38.90;;;;;;5094518;28;20024;-39
2022/01/27 00:32:16;;;;;;;7.85;6.30;;;16.70;38.90;;;;;;5094015;28;20487;-39
2022/01/27 00:34:42;;;;;;;7.60;6.15;;;16.70;38.80;;;;;;5093575;28;20044;-40
2022/01/27 00:37:09;;;;;;;7.70;6.10;;;16.70;38.90;;;;;;5094009;28;20048;-43
2022/01/27 00:39:35;;;;;;;8.07;6.10;;;16.70;39.00;;;;;;5094375;28;20086;-42
2022/01/27 00:42:02;;;;;;;6.97;5.75;;;16.70;38.90;;;;;;5094131;28;20048;-42
2022/01/27 00:44:29;;;;;;;7.78;6.30;;;16.70;38.90;;;;;;5098521;28;20020;-43
2022/01/27 00:46:55;;;;;;;8.68;6.25;;;16.70;38.90;;;;;;5097797;28;20012;-43
2022/01/27 00:49:22;;;;;;;8.05;5.93;;;16.70;38.90;;;;;;5097848;28;20012;-42
2022/01/27 00:51:48;;;;;;;7.10;5.65;;;16.70;39.00;;;;;;5097262;28;20013;-43
2022/01/27 00:54:27;;;;;;;7.47;6.05;;;16.60;38.90;;;;;;5097936;28;20020;-43
2022/01/27 00:57:02;;;;;;;7.80;5.90;;;16.60;39.00;;;;;;5097193;28;20032;-45
2022/01/27 01:02:15;;;;;;;8.68;6.43;;;16.60;39.00;;;;;;5097342;28;20028;-47
2022/01/27 01:04:45;;;;;;;8.63;6.00;;;16.60;39.00;;;;;;5097387;28;20008;-46
2022/01/27 01:07:12;;;;;;;7.70;5.85;;;16.60;39.10;;;;;;5098354;28;20016;-43
2022/01/27 01:34:24;;;;;;;7.35;5.78;;;16.50;39.30;;;;;;5072527;28;20360;-37
2022/01/27 01:37:00;;;;;;;7.15;5.68;;;16.50;39.30;;;;;;5095647;28;20048;-37
2022/01/27 01:39:27;;;;;;;8.25;5.35;;;16.50;39.30;;;;;;5095376;28;20094;-38
2022/01/27 01:41:53;;;;;;;8.13;5.97;;;16.50;39.30;;;;;;5096489;28;20423;-37
2022/01/27 01:44:20;;;;;;;6.22;5.13;;;16.50;39.30;;;;;;5095643;28;20027;-37
2022/01/27 01:46:46;;;;;;;6.85;5.80;;;16.40;39.30;;;;;;5096467;28;20024;-37
2022/01/27 01:49:12;;;;;;;7.10;5.47;;;16.50;39.40;;;;;;5096425;28;20020;-37
2022/01/27 01:51:39;;;;;;;7.70;5.95;;;16.40;39.30;;;;;;5096525;28;20490;-38
2022/01/27 01:54:05;;;;;;;7.70;5.57;;;16.50;39.30;;;;;;5095162;28;20058;-37
2022/01/27 01:56:32;;;;;;;7.75;5.60;;;16.40;39.30;;;;;;5096763;28;20115;-38
2022/01/27 01:58:58;;;;;;;7.47;5.78;;;16.50;39.40;;;;;;5097365;28;20036;-39
2022/01/27 02:01:24;;;;;;;7.70;5.88;;;16.40;39.40;;;;;;5096651;28;20024;-38
2022/01/27 02:03:50;;;;;;;7.25;5.47;;;16.40;39.40;;;;;;5096345;28;20121;-38
2022/01/27 02:06:26;;;;;;;6.18;5.20;;;16.40;39.50;;;;;;5096182;28;20816;-38
2022/01/27 02:19:52;;;;;;;9.65;5.65;;;16.40;39.70;;;;;;5095438;28;20167;-39
2022/01/27 02:22:19;;;;;;;7.68;5.45;;;16.30;39.60;;;;;;5094944;28;20023;-39
2022/01/27 02:24:45;;;;;;;6.80;5.50;;;16.30;39.60;;;;;;5096117;28;20013;-40
2022/01/27 02:27:11;;;;;;;6.38;4.80;;;16.30;39.60;;;;;;5095900;28;20390;-39
2022/01/27 02:29:38;;;;;;;7.38;5.60;;;16.30;39.70;;;;;;5095829;28;20031;-40
2022/01/27 02:32:05;;;;;;;6.53;5.10;;;16.30;39.70;;;;;;5095622;28;20027;-39
2022/01/27 02:34:32;;;;;;;6.75;5.40;;;16.30;39.70;;;;;;5095683;28;20011;-39
2022/01/27 02:36:58;;;;;;;6.32;5.30;;;16.40;39.70;;;;;;5094645;28;20056;-37
2022/01/27 02:39:25;;;;;;;7.03;5.28;;;16.30;39.70;;;;;;5096234;28;20541;-37
2022/01/27 02:41:54;;;;;;;6.80;5.00;;;16.30;39.80;;;;;;5097223;28;20103;-37
2022/01/27 02:44:32;;;;;;;7.43;5.53;;;16.30;39.80;;;;;;5096226;28;20012;-37
2022/01/27 02:46:58;;;;;;;6.05;4.85;;;16.30;39.80;;;;;;5096220;28;20024;-38
2022/01/27 02:49:24;;;;;;;7.47;5.40;;;16.30;39.70;;;;;;5095351;28;20020;-38
2022/01/27 02:51:51;;;;;;;6.60;4.88;;;16.30;39.80;;;;;;5096546;28;20043;-37
2022/01/27 02:54:18;;;;;;;8.05;5.65;;;16.30;39.90;;;;;;5096523;28;20063;-37
2022/01/27 02:56:46;;;;;;;6.93;5.22;;;16.30;39.90;;;;;;5094469;28;20092;-37
2022/01/27 02:59:13;;;;;;;6.57;5.03;;;16.20;39.90;;;;;;5096474;28;20015;-37
2022/01/27 03:01:40;;;;;;;6.47;5.13;;;16.20;39.90;;;;;;5098060;28;20043;-37
2022/01/27 03:04:05;;;;;;;6.78;5.40;;;16.20;40.00;;;;;;5098536;28;20087;-37
2022/01/27 03:06:32;;;;;;;7.03;4.88;;;16.20;40.00;;;;;;5096955;28;20107;-37
2022/01/27 03:08:59;;;;;;;6.88;5.13;;;16.30;40.00;;;;;;5094718;28;20016;-40
2022/01/27 03:11:46;;;;;;;7.03;5.28;;;16.20;40.00;;;;;;5095312;28;20008;-36
2022/01/27 03:14:17;;;;;;;7.07;5.30;;;16.20;40.00;;;;;;5096590;28;20020;-37
2022/01/27 03:16:43;;;;;;;7.47;5.40;;;16.20;40.00;;;;;;5096123;28;20031;-36
2022/01/27 03:19:09;;;;;;;7.65;5.00;;;16.20;40.00;;;;;;5096387;28;20463;-37
2022/01/27 03:21:36;;;;;;;7.20;5.20;;;16.20;40.10;;;;;;5095074;28;20040;-38
2022/01/27 03:24:01;;;;;;;6.30;4.95;;;16.20;40.10;;;;;;5096705;28;20020;-38
2022/01/27 03:26:29;;;;;;;5.90;4.57;;;16.20;40.10;;;;;;5097775;28;20020;-38
2022/01/27 03:28:54;;;;;;;6.25;4.82;;;16.20;40.20;;;;;;5096710;28;20028;-38
2022/01/27 03:31:20;;;;;;;6.72;4.90;;;16.20;40.10;;;;;;5095578;28;20364;-37
2022/01/27 03:33:47;;;;;;;6.55;5.03;;;16.20;40.10;;;;;;5094150;28;20032;-38
2022/01/27 03:36:12;;;;;;;7.25;5.05;;;16.20;40.20;;;;;;5095173;28;20101;-38
2022/01/27 03:38:38;;;;;;;6.38;4.65;;;16.20;40.20;;;;;;5094390;28;20414;-38
2022/01/27 03:41:07;;;;;;;6.10;5.00;;;16.20;40.20;;;;;;5095563;28;20024;-38
2022/01/27 03:43:33;;;;;;;6.30;4.72;;;16.20;40.20;;;;;;5094076;28;20017;-38
2022/01/27 03:45:59;;;;;;;6.13;4.85;;;16.20;40.20;;;;;;5094672;28;20024;-38
2022/01/27 03:48:26;;;;;;;6.07;4.97;;;16.10;40.20;;;;;;5095702;28;20421;-37
2022/01/27 03:50:52;;;;;;;7.32;4.93;;;16.20;40.30;;;;;;5095677;28;20062;-39
2022/01/27 03:53:19;;;;;;;7.82;5.00;;;16.10;40.30;;;;;;5096762;28;20024;-37
2022/01/27 03:55:45;;;;;;;7.07;5.30;;;16.10;40.30;;;;;;5096301;28;20025;-38
2022/01/27 03:58:12;;;;;;;7.55;5.18;;;16.10;40.30;;;;;;5096865;28;20044;-37
2022/01/27 04:00:38;;;;;;;6.63;5.05;;;16.10;40.40;;;;;;5096916;28;20009;-37
2022/01/27 04:03:07;;;;;;;7.68;5.20;;;16.10;40.40;;;;;;5095656;28;20042;-36
2022/01/27 04:05:38;;;;;;;8.67;5.33;;;16.10;40.40;;;;;;5096966;28;20398;-37
2022/01/27 04:08:05;;;;;;;6.53;4.90;;;16.10;40.40;;;;;;5094273;28;20072;-36
2022/01/27 04:10:34;;;;;;;6.80;4.85;;;16.10;40.40;;;;;;5094134;28;20019;-36
2022/01/27 04:13:01;;;;;;;7.18;4.93;;;16.10;40.50;;;;;;5092825;28;20016;-37
2022/01/27 04:15:27;;;;;;;5.32;4.60;;;16.10;40.40;;;;;;5093934;28;20451;-41
2022/01/27 04:17:53;;;;;;;7.72;4.97;;;16.10;40.40;;;;;;5094494;28;20020;-39
2022/01/27 04:20:19;;;;;;;6.30;4.82;;;16.20;40.40;;;;;;5097047;28;20028;-39
2022/01/27 04:22:46;;;;;;;6.32;5.00;;;16.20;40.30;;;;;;5097611;28;20490;-39
2022/01/27 04:25:12;;;;;;;5.35;4.78;;;16.20;40.10;;;;;;5097071;28;20115;-39
2022/01/27 04:27:41;;;;;;;6.63;4.97;;;16.40;40.00;;;;;;5097137;28;20012;-38
2022/01/27 04:30:16;;;;;;;7.10;5.00;;;16.40;39.80;;;;;;5096889;28;20081;-39
2022/01/27 04:32:51;;;;;;;6.22;4.82;;;16.50;39.60;;;;;;5097379;28;20091;-38
2022/01/27 04:35:20;;;;;;;7.45;4.82;;;16.60;39.30;;;;;;5097053;28;20089;-45
2022/01/27 04:40:28;;;;;;;6.65;4.97;;;16.90;38.80;;;;;;5097164;28;20020;-42
2022/01/27 04:43:02;;;;;;;6.75;4.80;;;17.00;38.60;;;;;;5095722;28;20489;-43
2022/01/27 04:45:35;;;;;;;5.60;4.50;;;17.10;38.50;;;;;;5097281;28;20012;-43
2022/01/27 04:48:11;;;;;;;6.10;4.75;;;17.20;38.10;;;;;;5098246;28;20093;-47
2022/01/27 04:50:38;;;;;;;6.45;4.65;;;17.30;37.80;;;;;;5097343;28;20079;-44
2022/01/27 04:53:08;;;;;;;6.43;4.57;;;17.40;37.70;;;;;;5096865;28;20032;-42
2022/01/27 04:55:34;;;;;;;6.47;4.53;;;17.60;37.40;;;;;;5096708;28;20024;-46
2022/01/27 04:58:11;;;;;;;6.30;4.85;;;17.60;37.20;;;;;;5096979;28;20557;-49
2022/01/27 05:00:37;;;;;;;6.30;4.65;;;17.80;37.10;;;;;;5096769;28;20012;-49
2022/01/27 05:03:12;;;;;;;6.82;5.00;;;17.80;36.90;;;;;;5097560;28;20031;-49
2022/01/27 05:05:38;;;;;;;5.72;5.10;;;17.90;36.70;;;;;;5097319;28;20016;-46
2022/01/27 05:08:04;;;;;;;6.25;4.57;;;18.00;36.60;;;;;;5096792;28;20024;-46
2022/01/27 05:10:34;;;;;;;6.20;4.80;;;18.10;36.50;;;;;;5096247;28;20620;-46
2022/01/27 05:13:07;;;;;;;5.15;4.30;;;18.10;36.30;;;;;;5096572;28;20048;-49
2022/01/27 05:15:41;;;;;;;6.68;4.82;;;18.20;36.00;;;;;;5094884;28;20483;-47
2022/01/27 05:18:07;;;;;;;7.47;4.70;;;18.40;35.90;;;;;;5096073;28;20024;-48
2022/01/27 05:20:33;;;;;;;5.88;4.50;;;18.50;35.80;;;;;;5096359;28;20020;-49
2022/01/27 05:22:59;;;;;;;6.65;4.65;;;18.50;35.60;;;;;;5096513;28;20020;-47
2022/01/27 05:25:25;;;;;;;6.47;4.35;;;18.60;35.50;;;;;;5095605;28;20008;-47
2022/01/27 05:27:51;;;;;;;6.25;4.05;;;18.70;35.40;;;;;;5094950;28;20012;-47
2022/01/27 05:30:18;;;;;;;7.85;4.43;;;18.80;35.20;;;;;;5095547;28;20024;-45
2022/01/27 05:32:43;;;;;;;6.88;4.35;;;18.90;35.10;;;;;;5096102;28;20474;-47
2022/01/27 05:35:10;;;;;;;5.97;4.70;;;18.90;34.80;;;;;;5096495;28;20046;-45
2022/01/27 05:37:36;;;;;;;6.13;4.40;;;19.00;34.80;;;;;;5096009;28;20027;-47
2022/01/27 05:40:02;;;;;;;7.70;4.55;;;19.10;34.70;;;;;;5094971;28;20012;-43
2022/01/27 05:42:29;;;;;;;5.97;4.25;;;19.10;34.70;;;;;;5094730;28;20378;-48
2022/01/27 05:44:55;;;;;;;5.53;4.28;;;19.20;34.50;;;;;;5096351;28;20032;-48
2022/01/27 05:47:21;;;;;;;5.00;4.20;;;19.30;34.30;;;;;;5095617;28;20506;-44
2022/01/27 05:49:46;;;;;;;5.78;3.90;;;19.40;34.20;;;;;;5094460;28;20023;-49
2022/01/27 05:52:12;;;;;;;6.78;4.55;;;19.30;34.10;;;;;;5077751;28;20028;-49
2022/01/27 05:54:38;;;;;;;6.40;4.45;;;19.50;34.10;;;;;;5095996;28;20429;-47
2022/01/27 05:57:05;;;;;;;5.68;4.15;;;19.60;33.90;;;;;;5095449;28;20061;-37
2022/01/27 05:59:31;;;;;;;6.57;4.75;;;19.60;33.80;;;;;;5095995;28;20008;-37
2022/01/27 06:01:57;;;;;;;5.55;4.00;;;19.70;33.70;;;;;;5094637;28;20112;-37
2022/01/27 06:04:23;;;;;;;5.05;4.15;;;19.80;33.60;;;;;;5095454;28;20478;-37
2022/01/27 06:06:50;;;;;;;4.97;4.05;;;19.80;33.40;;;;;;5095553;28;20021;-37
2022/01/27 06:09:15;;;;;;;6.93;4.32;;;19.90;33.40;;;;;;5095063;28;20012;-37
2022/01/27 06:11:41;;;;;;;5.25;4.45;;;19.90;33.30;;;;;;5095314;28;20108;-38
2022/01/27 06:14:07;;;;;;;6.75;4.43;;;20.00;33.30;;;;;;5096339;28;20363;-38
2022/01/27 06:16:33;;;;;;;5.50;4.32;;;20.00;33.80;;;;;;5096013;28;20085;-38
2022/01/27 06:19:02;;;;;;;6.78;4.55;;;20.00;33.20;;;;;;5096340;28;20027;-38
2022/01/27 06:21:28;;;;;;;5.97;4.40;;;20.00;33.20;;;;;;5096403;28;20020;-37
2022/01/27 06:23:54;;;;;;;7.32;4.25;;;20.00;33.30;;;;;;5093966;28;20020;-37
2022/01/27 06:26:20;;;;;;;7.00;4.70;;;20.00;33.50;;;;;;5094560;28;20038;-37
2022/01/27 06:28:45;;;;;;;5.88;4.18;;;20.10;33.40;;;;;;5095872;28;20020;-37
2022/01/27 06:31:12;;;;;;;6.90;4.40;;;20.10;33.50;;;;;;5096527;28;20482;-37
2022/01/27 06:33:37;;;;;;;5.97;4.15;;;20.20;33.40;;;;;;5095609;28;20016;-38
2022/01/27 06:36:03;;;;;;;7.65;4.40;;;20.20;33.10;;;;;;5095788;28;20048;-37
2022/01/27 06:38:29;;;;;;;8.98;4.72;;;20.30;33.00;;;;;;5096533;28;20087;-37
2022/01/27 06:40:55;;;;;;;7.60;4.07;;;20.40;33.00;;;;;;5093904;28;20055;-38
2022/01/27 06:43:21;;;;;;;7.00;4.45;;;20.40;32.80;;;;;;5096089;28;20066;-36
2022/01/27 06:45:47;;;;;;;7.43;4.80;;;20.50;32.80;;;;;;5095659;28;20016;-37
2022/01/27 06:48:13;;;;;;;6.90;4.32;;;20.50;32.70;;;;;;5095008;28;20107;-36
2022/01/27 06:50:40;;;;;;;6.38;4.50;;;20.50;33.20;;;;;;5094432;28;20486;-37
2022/01/27 06:53:06;;;;;;;8.68;4.38;;;20.60;32.60;;;;;;5095273;28;20028;-37
2022/01/27 06:55:32;;;;;;;5.80;4.35;;;20.70;32.50;;;;;;5094853;28;20443;-37
2022/01/27 06:57:58;;;;;;;5.65;4.18;;;20.80;32.40;;;;;;5093687;28;20024;-36
2022/01/27 07:00:24;;;;;;;6.18;4.60;;;20.90;32.30;;;;;;5093411;28;20440;-37
2022/01/27 07:02:50;;;;;;;6.07;4.43;;;20.90;32.10;;;;;;5093179;28;20459;-37
2022/01/27 07:05:18;;;;;;;7.28;4.60;;;21.00;32.00;;;;;;5093923;28;20069;-36
2022/01/27 07:07:44;;;;;;;6.57;4.45;;;21.10;32.00;;;;;;5093592;28;20030;-37
2022/01/27 07:10:10;;;;;;;6.40;3.95;;;21.20;31.80;;;;;;5093952;28;20462;-38
2022/01/27 07:12:41;;;;;;;5.22;3.90;;;21.20;31.80;;;;;;5094209;28;20037;-36
2022/01/27 07:15:10;;;;;;;6.72;4.68;;;21.20;31.70;;;;;;5093282;28;20024;-39
2022/01/27 07:17:37;;;;;;;;;;;21.30;31.60;;;;;;5092988;28;20028;-38
2022/01/27 07:20:06;;;;;;;7.63;4.47;;;21.30;31.60;;;;;;5093633;28;19900;-39
2022/01/27 07:22:33;;;;;;;6.93;4.38;;;21.40;31.50;;;;;;5093544;28;20149;-41
2022/01/27 07:25:00;;;;;;;7.35;4.90;;;21.40;31.50;;;;;;5092360;28;20008;-40
2022/01/27 07:27:26;;;;;;;7.72;4.68;;;21.30;31.80;;;;;;5093729;28;20463;-42
2022/01/27 07:29:53;;;;;;;10.80;5.20;;;21.10;33.50;;;;;;5094558;28;20024;-39
2022/01/27 07:32:19;;;;;;;13.55;6.00;;;20.90;33.90;;;;;;5094278;28;20024;-40
2022/01/27 07:34:45;;;;;;;14.30;6.40;;;20.80;34.40;;;;;;5093565;28;20432;-40
2022/01/27 07:37:13;;;;;;;11.02;6.03;;;20.60;34.80;;;;;;5094388;28;20052;-40
2022/01/27 07:39:39;;;;;;;13.82;6.75;;;20.50;35.30;;;;;;5094315;28;20536;-39
2022/01/27 07:42:05;;;;;;;16.63;7.25;;;20.40;35.90;;;;;;5094137;28;20024;-42
2022/01/27 07:44:32;;;;;;;16.95;6.50;;;20.40;36.10;;;;;;5092955;28;20008;-40
2022/01/27 07:46:58;;;;;;;18.80;7.60;;;20.30;36.30;;;;;;5093591;28;20024;-39
2022/01/27 07:49:25;;;;;;;22.40;7.60;;;20.30;36.70;;;;;;5094556;28;20004;-40
2022/01/27 07:51:51;;;;;;;19.38;7.50;;;20.20;36.80;;;;;;5076051;28;20020;-39
2022/01/27 07:54:16;;;;;;;20.35;10.70;;;20.30;36.90;;;;;;5098024;28;20382;-39
2022/01/27 07:56:43;;;;;;;19.42;10.55;;;20.30;36.90;;;;;;5097116;28;20043;-37
2022/01/27 07:59:09;;;;;;;24.45;9.70;;;20.30;36.90;;;;;;5098373;28;20008;-37
2022/01/27 08:01:36;;;;;;;19.52;8.85;;;20.20;37.00;;;;;;5097547;28;20127;-37
2022/01/27 08:04:02;;;;;;;21.35;8.60;;;20.30;37.10;;;;;;5096495;28;20045;-38
2022/01/27 08:06:28;;;;;;;18.77;8.85;;;20.30;37.10;;;;;;5097848;28;20028;-38
2022/01/27 08:08:53;;;;;;;17.60;8.07;;;20.30;37.10;;;;;;5096277;28;20040;-36
2022/01/27 08:11:19;;;;;;;22.15;9.02;;;20.40;37.30;;;;;;5097227;28;20072;-36
2022/01/27 08:13:45;;;;;;;16.77;8.05;;;20.10;37.60;;;;;;5097176;28;20342;-37
2022/01/27 08:16:11;;;;;;;20.77;9.02;;;20.00;38.10;;;;;;5096308;28;20024;-37
2022/01/27 08:18:37;;;;;;;16.83;8.48;;;19.90;38.30;;;;;;5097112;28;20527;-39
2022/01/27 08:21:06;;;;;;;20.70;8.95;;;20.00;38.30;;;;;;5097597;28;20355;-37
2022/01/27 08:23:32;;;;;;;24.88;8.32;;;20.10;38.00;;;;;;5096623;28;20482;-37
2022/01/27 08:26:07;;;;;;;23.63;8.25;;;20.30;37.60;;;;;;5096904;28;20012;-37
2022/01/27 08:28:40;;;;;;;23.58;7.60;;;20.40;37.30;;;;;;5095747;28;20039;-37
2022/01/27 08:31:06;;;;;;;14.38;6.95;;;20.50;36.90;;;;;;5096814;28;20161;-37
2022/01/27 08:33:37;;;;;;;20.52;7.38;;;20.70;36.70;;;;;;5095565;28;20460;-36
2022/01/27 08:36:05;;;;;;;15.15;6.35;;;20.60;36.50;;;;;;5078780;28;20042;-37
2022/01/27 08:38:31;;;;;;;15.50;6.88;;;20.70;36.40;;;;;;5096162;28;20043;-38
2022/01/27 08:40:59;;;;;;;13.02;6.57;;;20.80;36.40;;;;;;5096322;28;20044;-39
2022/01/27 08:43:25;;;;;;;19.63;7.05;;;20.80;36.20;;;;;;5096091;28;20012;-38
2022/01/27 08:45:51;;;;;;;15.27;6.45;;;20.80;36.10;;;;;;5096151;28;20020;-40
2022/01/27 08:48:19;;;;;;;16.75;7.38;;;20.90;36.00;;;;;;5094639;28;20013;-39
2022/01/27 08:50:52;;;;;;;16.42;8.13;;;20.80;36.20;;;;;;5095748;28;20026;-39
2022/01/27 08:53:18;;;;;;;16.67;7.95;;;20.30;37.30;;;;;;5094519;28;20034;-39
2022/01/27 08:55:44;;;;;;;15.75;8.02;;;20.20;37.40;;;;;;5094276;28;20107;-39
2022/01/27 08:58:13;;;;;;;15.88;8.10;;;20.20;37.50;;;;;;5095884;28;20066;-36
2022/01/27 09:00:39;;;;;;;17.73;8.68;;;20.10;37.60;;;;;;5095827;28;20095;-37
2022/01/27 09:03:05;;;;;;;17.00;9.10;;;20.10;37.70;;;;;;5077177;28;20148;-38
2022/01/27 09:05:32;;;;;;;18.17;8.40;;;20.10;37.60;;;;;;5094739;28;20020;-37
2022/01/27 09:07:57;;;;;;;16.33;8.52;;;20.10;37.60;;;;;;5094443;28;20070;-37
2022/01/27 09:10:27;;;;;;;20.05;9.15;;;20.00;37.90;;;;;;5096556;28;20047;-36
2022/01/27 09:12:53;;;;;;;25.75;8.73;;;20.00;38.20;;;;;;5096989;28;20019;-38
2022/01/27 09:15:19;;;;;;;30.92;9.85;;;20.00;38.40;;;;;;5095068;28;20111;-38
2022/01/27 09:17:45;;;;;;;22.90;8.55;;;20.00;38.40;;;;;;5093969;28;20031;-36
2022/01/27 09:20:11;;;;;;;29.83;9.20;;;19.90;38.70;;;;;;5127704;27;20020;-35
2022/01/27 09:22:37;;;;;;;27.85;8.82;;;19.90;39.60;;;;;;5093136;28;20012;-36
2022/01/27 09:25:11;;;;;;;30.90;9.13;;;20.00;39.80;;;;;;5093552;28;20100;-35
2022/01/27 09:27:37;;;;;;;23.52;8.35;;;20.00;40.10;;;;;;5094835;28;20009;-36
2022/01/27 09:30:03;;;;;;;27.92;8.45;;;20.10;40.20;;;;;;5093586;28;20031;-36
2022/01/27 09:32:29;;;;;;;29.23;8.82;;;20.20;40.30;;;;;;5093465;28;20153;-36
2022/01/27 09:34:56;;;;;;;27.92;7.50;;;20.30;40.30;;;;;;5094772;28;20039;-36
2022/01/27 09:37:22;;;;;;;18.80;7.68;;;20.30;40.20;;;;;;5093356;28;20040;-36
2022/01/27 09:39:49;;;;;;;24.70;7.70;;;20.40;40.20;;;;;;5093509;28;20047;-36
2022/01/27 09:42:16;;;;;;;19.52;7.20;;;20.50;40.10;;;;;;5093494;28;20097;-36
2022/01/27 09:44:44;;;;;;;21.65;7.40;;;20.50;40.10;;;;;;5094619;28;20528;-35
2022/01/27 09:47:14;;;;;;;20.33;7.13;;;20.60;40.00;;;;;;5093089;28;20498;-36
2022/01/27 09:49:48;;;;;;;19.95;6.80;;;20.60;40.00;;;;;;5094307;28;20032;-35
2022/01/27 09:52:15;;;;;;;18.60;6.72;;;20.60;40.00;;;;;;5094236;28;20032;-35
2022/01/27 09:54:41;;;;;;;16.38;6.90;;;20.60;40.00;;;;;;5093197;28;20170;-36
2022/01/27 09:57:06;;;;;;;15.52;6.45;;;20.70;40.10;;;;;;5093015;28;20406;-39
2022/01/27 09:59:33;;;;;;;17.00;6.80;;;20.60;40.30;;;;;;5094638;28;20015;-36
2022/01/27 10:02:00;;;;;;;15.50;6.55;;;20.70;40.40;;;;;;5092877;28;20522;-36
2022/01/27 10:04:51;;;;;;;15.48;6.78;;;20.60;40.20;;;;;;5092889;28;20033;-36
2022/01/27 10:07:22;;;;;;;14.80;6.95;;;20.70;40.30;;;;;;5088170;28;20053;-37
2022/01/27 10:10:03;;;;;;;19.05;7.80;;;20.70;40.50;;;;;;5076255;28;20012;-36
2022/01/27 10:12:37;;;;;;;20.13;6.57;;;20.70;40.70;;;;;;5092947;28;20077;-37
2022/01/27 10:15:20;;;;;;;13.85;6.15;;;20.70;40.90;;;;;;5094045;28;20559;-36
2022/01/27 10:18:08;;;;;;;20.83;7.05;;;20.80;41.10;;;;;;5093357;28;20024;-37
2022/01/27 10:20:39;;;;;;;25.92;7.32;;;20.80;41.00;;;;;;5094181;28;20036;-38
2022/01/27 10:23:10;;;;;;;22.85;6.78;;;20.80;41.10;;;;;;5092659;28;20047;-37
2022/01/27 10:25:46;;;;;;;18.60;6.63;;;20.80;41.10;;;;;;5093792;28;20024;-39
2022/01/27 10:29:01;;;;;;;18.85;7.03;;;20.80;41.20;;;;;;5092850;28;20052;-38
2022/01/27 10:31:27;;;;;;;20.75;6.57;;;20.80;41.20;;;;;;5090056;28;20079;-38
2022/01/27 10:34:03;;;;;;;16.13;6.30;;;20.70;41.20;;;;;;5093933;28;20099;-39
2022/01/27 10:36:40;;;;;;;20.55;6.63;;;20.70;41.50;;;;;;5093697;28;20402;-40
2022/01/27 10:39:10;;;;;;;18.50;7.93;;;20.60;41.60;;;;;;5093776;28;20020;-40
2022/01/27 10:41:38;;;;;;;18.60;7.97;;;20.60;41.50;;;;;;5093573;28;20028;-38
2022/01/27 10:44:08;;;;;;;20.13;7.22;;;20.60;41.50;;;;;;5093371;28;20023;-39
2022/01/27 10:46:34;;;;;;;14.93;6.18;;;20.60;41.70;;;;;;5093651;28;20024;-40
2022/01/27 10:49:08;;;;;;;13.48;5.80;;;20.50;41.90;;;;;;5093558;28;20375;-39
2022/01/27 10:51:46;;;;;;;12.13;6.38;;;20.50;42.10;;;;;;5076190;28;20016;-40
2022/01/27 10:54:21;;;;;;;12.75;5.85;;;20.60;42.00;;;;;;5075963;28;20021;-38
2022/01/27 10:56:47;;;;;;;14.85;5.65;;;20.60;41.90;;;;;;5093122;28;20020;-37
2022/01/27 10:59:15;;;;;;;14.60;5.55;;;20.60;42.20;;;;;;5093227;28;20023;-37
2022/01/27 11:01:44;;;;;;;17.48;6.03;;;20.50;42.80;;;;;;5093861;28;20087;-36
2022/01/27 11:04:12;;;;;;;19.52;6.13;;;20.40;42.50;;;;;;5093877;28;20019;-36
2022/01/27 11:06:52;;;;;;;14.93;5.82;;;20.40;42.60;;;;;;5096126;28;20024;-37
2022/01/27 11:09:17;;;;;;;14.88;5.03;;;20.50;42.20;;;;;;5094518;28;20023;-37
2022/01/27 11:11:52;;;;;;;15.52;5.05;;;20.70;41.80;;;;;;5094558;28;20027;-37
2022/01/27 11:14:19;;;;;;;13.82;4.72;;;20.90;41.50;;;;;;5095005;28;20387;-37
2022/01/27 11:16:45;;;;;;;15.00;4.70;;;21.00;41.10;;;;;;5094845;28;20028;-37
2022/01/27 11:19:21;;;;;;;11.07;4.47;;;21.00;40.90;;;;;;5094778;28;20015;-37
2022/01/27 11:21:52;;;;;;;13.23;4.55;;;21.10;40.70;;;;;;5095301;28;20016;-37
2022/01/27 11:24:32;;;;;;;10.48;4.50;;;21.10;40.60;;;;;;5093706;28;20035;-37
2022/01/27 11:26:58;;;;;;;9.82;4.68;;;21.10;40.50;;;;;;5093587;28;20074;-37
2022/01/27 11:29:24;;;;;;;10.40;4.05;;;21.10;40.40;;;;;;5094360;28;20020;-37
2022/01/27 11:32:09;;;;;;;11.50;4.30;;;21.20;40.40;;;;;;5093481;28;20016;-37
2022/01/27 11:34:48;;;;;;;10.82;3.88;;;21.20;40.30;;;;;;5094689;28;20067;-37
2022/01/27 11:37:18;;;;;;;10.48;4.43;;;21.20;40.30;;;;;;5095025;28;20084;-37
2022/01/27 11:39:49;;;;;;;9.07;3.45;;;21.30;40.20;;;;;;5114138;28;22541;-37
2022/01/27 11:42:20;;;;;;;8.65;3.88;;;21.30;40.10;;;;;;5080105;28;20457;-37
2022/01/27 11:44:48;;;;;;;11.25;4.25;;;21.30;40.10;;;;;;5096851;28;20054;-37
2022/01/27 11:47:18;;;;;;;7.95;3.95;;;21.20;40.10;;;;;;5114661;28;20129;-38
2022/01/27 11:50:12;;;;;;;7.45;3.40;;;21.30;40.00;;;;;;5094954;28;20043;-42
2022/01/27 11:52:51;;;;;;;11.27;3.83;;;21.20;40.60;;;;;;5112501;28;20026;-36
2022/01/27 11:55:26;;;;;;;12.82;4.47;;;21.10;41.80;;;;;;5112736;28;20347;-38
2022/01/27 11:57:52;;;;;;;17.38;3.95;;;21.00;42.30;;;;;;5112722;28;20485;-36
2022/01/27 12:00:23;;;;;;;17.10;4.38;;;21.00;42.80;;;;;;5113192;28;20028;-37
2022/01/27 12:03:01;;;;;;;14.15;3.85;;;21.00;43.10;;;;;;5094990;28;20026;-38
2022/01/27 12:05:29;;;;;;;;;;;21.10;43.20;;;;;;5113443;28;20012;-35
2022/01/27 12:08:17;;;;;;;14.55;4.10;;;21.10;43.30;;;;;;5094502;28;19900;-36
2022/01/27 12:10:50;;;;;;;18.95;3.80;;;21.20;43.30;;;;;;5112713;28;20466;-35
2022/01/27 12:13:34;;;;;;;11.77;4.07;;;21.20;43.40;;;;;;5112809;28;20016;-35
2022/01/27 12:19:04;;;;;;;10.27;3.53;;;20.70;44.80;;;;;;5095340;28;20470;-37
2022/01/27 12:21:53;;;;;;;13.55;3.47;;;20.60;45.10;;;;;;5113030;28;20089;-37
2022/01/27 12:24:28;;;;;;;10.05;3.00;;;20.80;45.10;;;;;;5112441;28;20020;-36
2022/01/27 12:27:04;;;;;;;9.70;3.40;;;20.90;44.80;;;;;;5112721;28;20060;-36
2022/01/27 12:29:42;;;;;;;10.13;2.90;;;21.00;44.70;;;;;;5095902;28;20011;-38
2022/01/27 12:32:34;;;;;;;11.70;3.20;;;21.10;44.50;;;;;;5094881;28;20463;-37
2022/01/27 12:35:05;;;;;;;8.02;2.60;;;21.20;44.50;;;;;;5091376;28;20019;-38
2022/01/27 12:37:34;;;;;;;12.23;3.00;;;21.20;44.40;;;;;;5093954;28;20047;-37
2022/01/27 12:40:03;;;;;;;8.75;2.83;;;21.20;44.60;;;;;;5114011;28;20023;-38
2022/01/27 12:42:36;;;;;;;15.73;2.78;;;21.20;44.60;;;;;;5116170;28;20090;-37
2022/01/27 12:45:05;;;;;;;13.40;3.03;;;21.20;44.60;;;;;;5099427;28;20457;-36
2022/01/27 12:47:31;;;;;;;14.60;2.77;;;21.40;45.20;;;;;;5098178;28;20047;-36
2022/01/27 12:50:06;;;;;;;17.83;3.45;;;21.60;44.90;;;;;;5116855;28;20095;-35
2022/01/27 12:52:43;;;;;;;16.65;3.05;;;21.80;44.70;;;;;;5116642;28;20011;-36
2022/01/27 12:55:19;;;;;;;14.15;3.03;;;21.60;44.40;;;;;;5116540;28;20015;-36
2022/01/27 12:58:06;;;;;;;17.27;2.90;;;21.10;46.10;;;;;;5115962;28;20457;-36
2022/01/27 13:00:42;;;;;;;9.95;2.72;;;20.80;46.90;;;;;;5080880;28;20016;-37
2022/01/27 13:03:08;;;;;;;9.32;2.70;;;20.70;46.90;;;;;;5116187;28;20057;-36
2022/01/27 13:05:45;;;;;;;13.18;2.40;;;20.50;47.50;;;;;;5116085;28;20012;-37
2022/01/27 13:08:14;;;;;;;12.57;2.90;;;20.40;47.50;;;;;;5115914;28;20067;-36
2022/01/27 13:10:47;;;;;;;9.52;2.58;;;20.40;47.40;;;;;;5115665;28;20012;-37
2022/01/27 13:13:18;;;;;;;8.63;2.60;;;20.50;47.20;;;;;;5115476;28;20008;-36
2022/01/27 13:15:44;;;;;;;10.38;2.85;;;20.20;47.70;;;;;;5115985;28;20126;-36
2022/01/27 13:18:23;;;;;;;10.98;2.40;;;20.20;48.30;;;;;;5080583;28;20028;-37
2022/01/27 13:20:54;;;;;;;12.02;2.60;;;20.60;47.50;;;;;;5099367;28;20011;-38
2022/01/27 13:25:52;;;;;;;7.93;2.40;;;21.50;45.70;;;;;;5115875;28;20035;-37
2022/01/27 13:28:20;;;;;;;10.07;2.80;;;21.80;45.30;;;;;;5115271;28;20016;-38
2022/01/27 13:30:47;;;;;;;9.15;2.30;;;21.80;44.90;;;;;;5114847;28;20016;-38
2022/01/27 13:33:15;;;;;;;15.20;2.83;;;21.90;44.80;;;;;;5097432;28;20075;-38
2022/01/27 13:35:48;;;;;;;15.38;3.35;;;21.90;44.80;;;;;;5115824;28;20058;-39
2022/01/27 13:38:20;;;;;;;14.68;2.97;;;21.90;45.00;;;;;;5115902;28;20107;-38
2022/01/27 13:43:54;;;;;;;13.80;3.17;;;21.90;45.10;;;;;;5100302;28;20062;-37